createdAt,value
2024-01-07T00:01:50.952Z,70.08
2024-01-07T00:06:52.847Z,72.09
2024-01-07T00:11:54.697Z,70.98
2024-01-07T00:16:56.499Z,69.71
2024-01-07T00:21:58.884Z,70.71
2024-01-07T00:27:02.175Z,70.49
2024-01-07T00:32:04.162Z,68.50
2024-01-07T00:37:06.081Z,70.33
2024-01-07T00:42:07.920Z,70.20
2024-01-07T00:47:09.730Z,70.90
2024-01-07T00:52:12.054Z,72.95
2024-01-07T00:57:14.498Z,72.06
2024-01-07T01:02:16.891Z,72.04
2024-01-07T01:07:18.641Z,72.49
2024-01-07T01:12:20.598Z,71.78
2024-01-07T01:17:23.129Z,71.88
2024-01-07T01:22:24.916Z,71.47
2024-01-07T01:27:26.960Z,74.43
2024-01-07T01:32:28.784Z,72.75
2024-01-07T01:37:31.288Z,73.27
2024-01-07T01:42:33.221Z,76.68
2024-01-07T01:47:35.055Z,74.92
2024-01-07T01:52:37.593Z,73.53
2024-01-07T01:57:41.711Z,72.43
2024-01-07T02:02:43.521Z,73.14
2024-01-07T02:07:45.427Z,74.78
2024-01-07T02:12:47.251Z,74.35
2024-01-07T02:17:49.070Z,73.66
2024-01-07T02:22:50.884Z,74.24
2024-01-07T02:27:52.845Z,76.65
2024-01-07T02:32:54.713Z,73.99
2024-01-07T02:37:56.525Z,74.07
2024-01-07T02:42:59.497Z,75.22
2024-01-07T02:48:01.421Z,77.20
2024-01-07T02:53:03.280Z,76.38
2024-01-07T02:58:05.213Z,76.45
2024-01-07T03:03:07.089Z,75.34
2024-01-07T03:08:08.922Z,76.33
2024-01-07T03:13:10.720Z,76.57
2024-01-07T03:18:12.655Z,78.64
2024-01-07T03:23:14.466Z,79.19
2024-01-07T03:28:16.870Z,78.81
2024-01-07T03:33:18.790Z,77.89
2024-01-07T03:38:20.680Z,75.38
2024-01-07T03:43:22.392Z,76.46
2024-01-07T03:48:24.427Z,75.56
2024-01-07T03:53:26.329Z,76.09
2024-01-07T03:58:28.073Z,74.38
2024-01-07T04:03:29.945Z,75.75
2024-01-07T04:08:31.828Z,76.72
2024-01-07T04:13:33.729Z,77.07
2024-01-07T04:18:35.649Z,77.77
2024-01-07T04:23:37.580Z,77.50
2024-01-07T04:28:43.925Z,79.89
2024-01-07T04:33:45.703Z,79.41
2024-01-07T04:38:47.534Z,80.35
2024-01-07T04:43:49.297Z,80.74
2024-01-07T04:48:51.102Z,80.79
2024-01-07T04:53:52.956Z,78.33
2024-01-07T04:58:54.733Z,79.27
2024-01-07T05:03:56.619Z,79.35
2024-01-07T05:08:58.403Z,78.12
2024-01-07T05:14:00.226Z,79.24
2024-01-07T05:19:02.162Z,78.57
2024-01-07T05:24:04.433Z,79.80
2024-01-07T05:29:06.807Z,80.02
2024-01-07T05:34:09.243Z,79.66
2024-01-07T05:39:11.061Z,80.48
2024-01-07T05:44:13.349Z,82.23
2024-01-07T05:49:15.314Z,82.36
2024-01-07T05:54:17.116Z,80.34
2024-01-07T05:59:18.968Z,81.60
2024-01-07T06:04:20.816Z,81.58
2024-01-07T06:09:22.668Z,83.12
2024-01-07T06:14:24.432Z,82.47
2024-01-07T06:19:26.435Z,82.72
2024-01-07T06:24:28.306Z,83.12
2024-01-07T06:29:30.068Z,81.82
2024-01-07T06:34:32.046Z,81.54
2024-01-07T06:39:35.541Z,78.58
2024-01-07T06:44:37.422Z,78.67
2024-01-07T06:49:40.108Z,79.91
2024-01-07T06:54:42.078Z,79.71
2024-01-07T06:59:43.832Z,77.93
2024-01-07T07:04:45.657Z,80.94
2024-01-07T07:09:49.960Z,79.03
2024-01-07T07:14:57.832Z,76.45
2024-01-07T07:20:02.294Z,78.00
2024-01-07T07:25:04.602Z,77.00
2024-01-07T07:30:07.807Z,77.54
2024-01-07T07:35:09.874Z,74.93
2024-01-07T07:40:14.982Z,75.84
2024-01-07T07:45:16.917Z,78.96
2024-01-07T07:50:18.802Z,75.10
2024-01-07T07:55:20.958Z,75.75
2024-01-07T08:00:24.724Z,75.85
2024-01-07T08:05:29.556Z,75.42
2024-01-07T08:10:33.275Z,78.36
2024-01-07T08:15:37.515Z,79.67
2024-01-07T08:20:39.475Z,79.75
2024-01-07T08:25:42.471Z,80.40
2024-01-07T08:30:45.630Z,80.10
2024-01-07T08:35:47.473Z,79.61
2024-01-07T08:40:50.469Z,78.96
2024-01-07T08:45:52.538Z,77.33
2024-01-07T08:50:54.378Z,74.75
2024-01-07T08:55:56.189Z,74.53
2024-01-07T09:01:01.074Z,73.37
2024-01-07T09:06:03.818Z,74.89
2024-01-07T09:11:07.373Z,71.14
2024-01-07T09:16:12.523Z,71.50
2024-01-07T09:21:15.331Z,71.46
2024-01-07T09:26:19.173Z,72.95
2024-01-07T09:31:21.014Z,72.73
2024-01-07T09:36:29.866Z,71.91
2024-01-07T09:41:35.198Z,73.02
2024-01-07T09:46:44.048Z,71.27
2024-01-07T09:51:49.335Z,71.13
2024-01-07T09:57:04.759Z,72.75
2024-01-07T10:02:06.899Z,70.70
2024-01-07T10:07:11.966Z,73.70
2024-01-07T10:12:16.626Z,71.99
2024-01-07T10:17:19.154Z,71.13
2024-01-07T10:22:21.319Z,71.62
2024-01-07T10:27:24.239Z,72.45
2024-01-07T10:32:26.139Z,73.04
2024-01-07T10:37:28.965Z,69.74
2024-01-07T10:42:35.258Z,70.42
2024-01-07T10:47:37.773Z,71.14
2024-01-07T10:52:43.660Z,70.51
2024-01-07T10:57:48.919Z,70.89
2024-01-07T11:03:00.449Z,68.59
2024-01-07T11:08:12.872Z,70.85
2024-01-07T11:13:53.250Z,70.85
2024-01-07T11:18:55.953Z,70.87
2024-01-07T11:23:57.862Z,70.18
2024-01-07T11:29:01.666Z,69.47
2024-01-07T11:34:03.680Z,67.41
2024-01-07T11:39:09.807Z,67.96
2024-01-07T11:44:13.554Z,67.07
2024-01-07T11:49:16.679Z,66.87
2024-01-07T11:54:18.905Z,65.71
2024-01-07T11:59:20.814Z,65.67
2024-01-07T12:04:25.339Z,65.93
2024-01-07T12:09:30.405Z,64.86
2024-01-07T12:14:33.380Z,64.55
2024-01-07T12:19:35.908Z,66.40
2024-01-07T12:24:37.729Z,65.26
2024-01-07T12:29:39.507Z,65.15
2024-01-07T12:34:41.722Z,66.22
2024-01-07T12:39:43.868Z,65.52
2024-01-07T12:44:57.257Z,65.00
2024-01-07T12:50:18.435Z,64.29
2024-01-07T12:55:34.235Z,65.00
2024-01-07T13:00:51.678Z,64.58
2024-01-07T13:05:53.830Z,64.47
2024-01-07T13:10:58.812Z,64.45
2024-01-07T13:16:02.842Z,64.77
2024-01-07T13:21:04.922Z,65.28
2024-01-07T13:26:07.645Z,62.22
2024-01-07T13:31:10.778Z,63.44
2024-01-07T13:36:13.789Z,63.47
2024-01-07T13:41:15.819Z,62.18
2024-01-07T13:46:22.964Z,62.65
2024-01-07T13:51:25.034Z,63.31
2024-01-07T13:56:26.837Z,62.60
2024-01-07T14:01:28.717Z,62.99
2024-01-07T14:06:30.609Z,63.39
2024-01-07T14:11:32.388Z,64.02
2024-01-07T14:16:34.208Z,63.23
2024-01-07T14:21:35.945Z,63.73
2024-01-07T14:26:37.871Z,63.31
2024-01-07T14:31:39.852Z,62.80
2024-01-07T14:36:44.674Z,63.42
2024-01-07T14:41:47.803Z,63.56
2024-01-07T14:46:49.598Z,64.45
2024-01-07T14:51:51.534Z,63.84
2024-01-07T14:56:53.270Z,64.33
2024-01-07T15:01:55.214Z,64.92
2024-01-07T15:06:57.707Z,64.07
2024-01-07T15:12:00.278Z,65.33
2024-01-07T15:17:02.190Z,63.85
2024-01-07T15:22:04.529Z,64.79
2024-01-07T15:27:06.438Z,65.56
2024-01-07T15:32:08.348Z,65.14
2024-01-07T15:37:13.337Z,65.68
2024-01-07T15:42:15.197Z,66.29
2024-01-07T15:47:16.949Z,66.29
2024-01-07T15:52:18.868Z,66.66
2024-01-07T15:57:20.740Z,66.90
2024-01-07T16:02:22.622Z,66.38
2024-01-07T16:07:24.413Z,66.96
2024-01-07T16:12:26.252Z,68.28
2024-01-07T16:17:28.431Z,68.22
2024-01-07T16:22:44.862Z,68.21
2024-01-07T16:27:46.694Z,68.31
2024-01-07T16:32:57.806Z,69.54
2024-01-07T16:38:01.228Z,69.29
2024-01-07T16:43:06.812Z,69.40
2024-01-07T16:50:14.368Z,68.90
2024-01-07T16:53:40.396Z,68.48
2024-01-07T16:58:45.228Z,69.41
2024-01-07T17:03:47.218Z,69.00
2024-01-07T17:08:49.015Z,68.51
2024-01-07T17:13:50.811Z,68.26
2024-01-07T17:18:52.828Z,69.78
2024-01-07T17:23:55.886Z,70.85
2024-01-07T17:29:00.110Z,72.98
2024-01-07T17:34:10.853Z,74.03
2024-01-07T17:39:24.450Z,74.09
2024-01-07T17:44:29.180Z,74.60
2024-01-07T17:51:57.433Z,74.54
2024-01-07T17:55:24.307Z,74.90
2024-01-07T18:00:26.344Z,73.70
2024-01-07T18:05:31.315Z,74.26
2024-01-07T18:10:53.231Z,74.53
2024-01-07T18:16:11.982Z,73.79
2024-01-07T18:21:17.265Z,73.64
2024-01-07T18:26:19.043Z,74.33
2024-01-07T18:31:30.693Z,75.13
2024-01-07T18:36:36.802Z,75.12
2024-01-07T18:41:51.394Z,74.56
2024-01-07T18:46:56.574Z,73.69
2024-01-07T18:52:06.450Z,74.05
2024-01-07T18:57:18.223Z,73.55
2024-01-07T19:07:59.932Z,73.36
2024-01-07T19:19:01.927Z,73.28
2024-01-07T19:24:07.146Z,72.88
2024-01-07T19:29:09.099Z,72.47
2024-01-07T19:34:13.930Z,72.14
2024-01-07T19:39:21.688Z,73.77
2024-01-07T19:44:27.232Z,73.48
2024-01-07T19:49:30.031Z,72.10
2024-01-07T19:54:31.891Z,72.49
2024-01-07T19:59:41.268Z,72.90
2024-01-07T20:04:46.514Z,73.40
2024-01-07T20:09:50.002Z,72.21
2024-01-07T20:14:52.053Z,72.31
2024-01-07T20:19:56.804Z,72.12
2024-01-07T20:24:58.629Z,70.57
2024-01-07T20:30:12.909Z,71.33
2024-01-07T20:35:14.846Z,71.32
2024-01-07T20:40:16.665Z,72.60
2024-01-07T20:45:21.412Z,71.96
2024-01-07T20:50:23.229Z,71.92
2024-01-07T20:55:25.147Z,72.61
2024-01-07T21:00:29.750Z,73.59
2024-01-07T21:05:31.679Z,72.54
2024-01-07T21:10:34.195Z,72.39
2024-01-07T21:15:39.755Z,72.18
2024-01-07T21:20:47.022Z,71.18
2024-01-07T21:25:49.909Z,76.07
2024-01-07T21:30:55.280Z,71.06
2024-01-07T21:36:01.827Z,70.94
2024-01-07T21:41:07.014Z,70.82
2024-01-07T21:46:09.508Z,70.36
2024-01-07T21:51:11.842Z,70.26
2024-01-07T21:56:13.799Z,70.17
2024-01-07T22:01:15.908Z,70.32
2024-01-07T22:06:18.999Z,70.11
2024-01-07T22:11:22.357Z,70.22
2024-01-07T22:16:24.189Z,71.27
2024-01-07T22:21:26.088Z,70.54
2024-01-07T22:26:27.933Z,70.17
2024-01-07T22:31:32.995Z,71.26
2024-01-07T22:36:35.075Z,70.96
2024-01-07T22:41:44.984Z,70.92
2024-01-07T22:46:49.887Z,70.82
2024-01-07T22:51:51.836Z,71.65
2024-01-07T22:56:53.632Z,72.88
2024-01-07T23:01:55.487Z,73.00
2024-01-07T23:06:57.231Z,73.52
2024-01-07T23:11:58.972Z,73.87
2024-01-07T23:17:01.535Z,74.43
2024-01-07T23:22:03.556Z,75.44
2024-01-07T23:27:05.534Z,76.09
2024-01-07T23:32:08.299Z,77.03
2024-01-07T23:37:10.557Z,76.22
2024-01-07T23:42:12.290Z,76.10
2024-01-07T23:47:14.116Z,75.29
2024-01-07T23:52:15.861Z,76.75
2024-01-07T23:57:17.576Z,76.91
